Tiempo atmosférico en la estación meteorológica de Valleseco, Las Palmas (900 m.)



Fecha
DESCASC
Temp. máxima en grados centígrados (hora)
DESCASC
Temp. mínima en grados centígrados (hora)
DESCASC
Temp. media en grados centígrados
DESCASC
Racha de viento máxima en m/sg (hora)
DESCASC
Velocidad máxima media en intervalos de 10 minutos(hora)
DESCASC
Precipitaciones diarias en mm
DESCASC
Precipitaciones de 00:00 a 06:00 en mm
DESCASC
Precipitaciones de 06:00 a 12:00 en mm
DESCASC
Precipitaciones de 12:00 a 18:00 en mm
DESCASC
Precipitaciones de 18:00 a 24:00 en mm
DESCASC
06-12-2018 21.5 (15:00) 13.2 (07:30) 17.3 16.67 (00:10) 11.11 (00:40) 0 0 0 0 0
05-12-2018 20.4 (12:00) 13.6 (20:00) 17 16.67 (00:50) 11.39 (01:00) 0 0 0 0 0
04-12-2018 22.6 (12:40) 13.5 (04:40) 18.1 13.06 (23:50) 9.17 (23:50) 0 0 0 0 0
03-12-2018 24.1 (17:10) 10.2 (00:00) 17.2 8.33 (23:00) 6.11 (22:00) 0 0 0 0 0
02-12-2018 19.2 (16:10) 10.4 (00:00) 14.8 8.61 (11:30) 6.67 (11:30) 0 0 0 0 0
01-12-2018 17.3 (13:00) 9.3 (00:00) 13.3 8.61 (06:00) 6.39 (03:00) 0 0 0 0 0
30-11-2018 20.2 (15:50) 9.9 (00:00) 15.1 6.39 (07:30) 5.28 (07:20) 0 0 0 0 0
29-11-2018 21.6 (15:50) 11.4 (00:00) 16.5 7.22 (03:10) 5.56 (03:10) 0 0 0 0 0
28-11-2018 21.8 (16:40) 7.9 (00:00) 14.8 7.22 (00:10) 6.39 (00:10) 0 0 0 0 0
27-11-2018 18.2 (14:30) 8.6 (00:00) 13.4 7.22 (23:59) 5.83 (23:59) 0 0 0 0 0
26-11-2018 17.8 (14:50) 11.4 (02:00) 14.6 5.83 (20:10) 4.17 (20:10) 1.4 0 1 0.4 0
25-11-2018 19.4 (13:40) 12.4 (00:00) 15.9 8.33 (05:40) 5 (05:20) 0 0 0 0 0
24-11-2018 17.9 (16:40) 8.1 (00:00) 13 8.61 (23:30) 5 (22:00) 0.2 0.2 0 0 0
23-11-2018 12.2 (15:50) 7.7 (00:00) 9.9 11.67 (05:10) 6.67 (05:10) 36.6 17.2 15.6 2.8 1
22-11-2018 14.7 (13:00) 8.5 (00:00) 11.6 10 (08:00) 5 (21:40) 32.4 2.2 4.4 12.6 13.2
21-11-2018 19.5 (16:00) 10 (00:00) 14.8 4.44 (21:20) 3.33 (18:10) 0 0 0 0 0
20-11-2018 17.5 (16:40) 8.8 (00:00) 13.2 7.78 (00:30) 4.44 (00:30) 0.2 0.2 0 0 0
19-11-2018 12.7 (13:30) 9.1 (00:00) 10.9 10.83 (12:00) 5.56 (16:30) 10.8 4.4 2.6 2 1.8
18-11-2018 15.5 (14:40) 10.5 (00:00) 13 9.17 (23:59) 4.72 (11:40) 7.8 2 2.8 0.4 2.6
17-11-2018 20.3 (11:20) 8.7 (00:00) 14.5 12.78 (12:10) 6.67 (18:10) 16.6 0 0 8.2 8.4
16-11-2018 17 (13:20) 9.6 (00:00) 13.3 6.39 (01:20) 3.61 (17:50) 0.2 0.2 0 0 0
15-11-2018 16.6 (10:10) 8.9 (00:00) 12.8 8.89 (15:50) 5.56 (15:50) 2 0 0 0.6 1.4
14-11-2018 16 (14:50) 9.4 (00:00) 12.7 8.06 (00:40) 4.72 (01:00) 1.2 1.2 0 0 0
13-11-2018 14.3 (15:00) 9.8 (00:00) 12.1 9.17 (13:40) 4.72 (13:40) 4.2 1.4 0.2 0.8 1.8
12-11-2018 13.4 (10:30) 10.6 (00:00) 12 12.5 (11:10) 6.11 (07:00) 25.8 0 14.4 11.2 0.2
11-11-2018 18.7 (14:50) 10.9 (00:00) 14.8 6.11 (13:20) 3.33 (15:00) 0.4 0 0.2 0 0.2
10-11-2018 15.6 (15:10) 10.7 (00:00) 13.2 6.11 (03:40) 3.06 (03:40) 0.4 0.4 0 0 0

Gráficas

Temp. máximas Temp. mínimas Temp. medias Precipitaciones Rachas de viento máximas Velocidades máximas media en intervalos de 10 minutos

Datos horarios

Fecha y hora oficial Temperatura (ºC) Velocidad del viento (km/h) Dirección del viento Racha (km/h) Dirección de racha Precipitación (mm) Presión (hPa) Tendencia (hPa) Humedad (%)
2018-12-09 23:00:00 16.1 19 Sudeste 31 Sudeste 0 -- -- 28
2018-12-09 22:00:00 15.6 15 Sudeste 27 Sudeste 0 -- -- 30
2018-12-09 21:00:00 15.5 14 Sudeste 22 Sudeste 0 -- -- 30
2018-12-09 20:00:00 15.2 13 Sudeste 19 Sudeste 0 -- -- 30
2018-12-09 19:00:00 15.3 14 Sudeste 22 Sudeste 0 -- -- 32
2018-12-09 18:00:00 15.7 13 Sudeste 22 Sudeste 0 -- -- 36
2018-12-09 17:00:00 20.6 14 Sudeste 22 Sudeste 0 -- -- 45
2018-12-09 16:00:00 22.3 7 Sudeste 13 Sudeste 0 -- -- 48
2018-12-09 15:00:00 21.8 7 Este 19 Sudeste 0 -- -- 49
2018-12-09 14:00:00 22.2 7 Este 28 Este 0 -- -- 45
2018-12-09 13:00:00 21.6 17 Sudeste 27 Este 0 -- -- 41
2018-12-09 12:00:00 21.8 15 Sudeste 28 Este 0 -- -- 34
2018-12-09 11:00:00 20.6 19 Sudeste 32 Este 0 -- -- 34
2018-12-09 10:00:00 19.1 21 Sudeste 30 Sudeste 0 -- -- 36
2018-12-09 09:00:00 17.5 17 Sudeste 28 Sudeste 0 -- -- 36
2018-12-09 08:00:00 14.8 17 Sudeste 23 Sudeste 0 -- -- 34
2018-12-09 07:00:00 13.2 14 Sudeste 19 Sudeste 0 -- -- 41
2018-12-09 06:00:00 14.2 7 Sudeste 16 Sudeste 0 -- -- 31
2018-12-09 05:00:00 13.3 14 Sudeste 21 Sudeste 0 -- -- 37
2018-12-09 04:00:00 13.9 15 Sudeste 26 Sudeste 0 -- -- 38
2018-12-09 03:00:00 14.6 18 Sudeste 28 Este 0 -- -- 34
2018-12-09 02:00:00 14.5 21 Sudeste 33 Sudeste 0 -- -- 37
2018-12-09 01:00:00 15.1 25 Sudeste 35 Este 0 -- -- 35
2018-12-09 00:00:00 14.9 20 Sudeste 32 Sudeste 0 -- -- 34
2018-12-08 23:00:00 15 18 Sudeste 31 Sudeste 0 -- -- 33
2018-12-08 22:00:00 15 17 Sudeste 27 Sudeste 0 -- -- 34
2018-12-08 21:00:00 14 14 Sudeste 23 Sudeste 0 -- -- 39
2018-12-08 20:00:00 13.8 15 Sudeste 21 Sudeste 0 -- -- 44
2018-12-08 19:00:00 13 16 Sudeste 19 Sudeste 0 -- -- 65
2018-12-08 18:00:00 14.2 9 Sudeste 10 Sudeste 0 -- -- 85
2018-12-08 17:00:00 21.4 5 Sudeste 13 Este 0 -- -- 64
2018-12-08 16:00:00 18.5 10 Sudeste 14 Este 0 -- -- 76
2018-12-08 15:00:00 19.7 7 Sudeste 14 Este 0 -- -- 71
2018-12-08 14:00:00 20.5 9 Sudeste 14 Este 0 -- -- 69
2018-12-08 13:00:00 19.2 4 Este 17 Sudeste 0 -- -- 73
2018-12-08 12:00:00 19.1 11 Sudeste 22 Sudeste 0 -- -- 69
2018-12-08 11:00:00 18.9 11 Sudeste 18 Sudeste 0 -- -- 67
2018-12-08 10:00:00 15.5 15 Sudeste 22 Este 0 -- -- 76
2018-12-08 09:00:00 12.8 9 Sudeste 19 Este 0 -- -- 84
2018-12-08 08:00:00 14.5 11 Sudeste 16 Sudeste 0 -- -- 33
2018-12-08 07:00:00 14.1 14 Sudeste 20 Sudeste 0 -- -- 34
2018-12-08 06:00:00 13.5 14 Sudeste 20 Sudeste 0 -- -- 39
2018-12-08 05:00:00 14.6 15 Sudeste 22 Sudeste 0 -- -- 33
2018-12-08 04:00:00 15.2 17 Sudeste 24 Sudeste 0 -- -- 32
2018-12-08 03:00:00 15.1 17 Sudeste 23 Sudeste 0 -- -- 33
2018-12-08 02:00:00 15.3 14 Sudeste 25 Sudeste 0 -- -- 32
2018-12-08 01:00:00 15 16 Sudeste 23 Sudeste 0 -- -- 35
2018-12-08 00:00:00 14.7 14 Sudeste 21 Sudeste 0 -- -- 36
2018-12-07 23:00:00 15.5 13 Sudeste 20 Sudeste 0 -- -- 35
2018-12-07 22:00:00 16.6 13 Sudeste 21 Sudeste 0 -- -- 32
2018-12-07 21:00:00 15.3 14 Sudeste 21 Sudeste 0 -- -- 37
2018-12-07 20:00:00 14.6 17 Sudeste 22 Sudeste 0 -- -- 42
2018-12-07 19:00:00 14.7 12 Sudeste 20 Sudeste 0 -- -- 43
2018-12-07 18:00:00 15.2 13 Sudeste 22 Este 0 -- -- 45
2018-12-07 17:00:00 19.1 15 Sudeste 23 Sudeste 0 -- -- 50
2018-12-07 16:00:00 21 12 Sudeste 28 Este 0 -- -- 58
2018-12-07 15:00:00 21.1 15 Este 31 Este 0 -- -- 46
2018-12-07 14:00:00 22 19 Sudeste 30 Sudeste 0 -- -- 31
2018-12-07 13:00:00 22.1 19 Sudeste 34 Sudeste 0 -- -- 31
2018-12-07 12:00:00 19.2 22 Sudeste 37 Este 0 -- -- 38
2018-12-07 11:00:00 20.4 24 Sudeste 37 Este 0 -- -- 33
2018-12-07 10:00:00 18.9 27 Sudeste 41 Sudeste 0 -- -- 35
2018-12-07 09:00:00 16.4 27 Sudeste 41 Sudeste 0 -- -- 41
2018-12-07 08:00:00 15.7 23 Sudeste 40 Sudeste 0 -- -- 40
2018-12-07 07:00:00 15.7 24 Sudeste 39 Sudeste 0 -- -- 39
2018-12-07 06:00:00 16.1 25 Sudeste 37 Sudeste 0 -- -- 36
2018-12-07 05:00:00 16 21 Sudeste 35 Sudeste 0 -- -- 33
2018-12-07 04:00:00 16.2 20 Sudeste 33 Sudeste 0 -- -- 29
2018-12-07 03:00:00 16 17 Sudeste 30 Sudeste 0 -- -- 30
2018-12-07 02:00:00 16.8 20 Sudeste 32 Sudeste 0 -- -- 29
2018-12-07 01:00:00 16.8 17 Sudeste 28 Sudeste 0 -- -- 30
2018-12-07 00:00:00 16.8 14 Sudeste 29 Sudeste 0 -- -- 30
2018-12-06 23:00:00 16.3 15 Sudeste 27 Sudeste 0 -- -- 32
2018-12-06 22:00:00 15.9 14 Sudeste 30 Sudeste 0 -- -- 32
2018-12-06 21:00:00 15.5 13 Sudeste 23 Sudeste 0 -- -- 33
2018-12-06 20:00:00 15.6 18 Sudeste 26 Sudeste 0 -- -- 34
2018-12-06 19:00:00 15.6 15 Sudeste 26 Sudeste 0 -- -- 36
2018-12-06 18:00:00 16.5 11 Sudeste 19 Sudeste 0 -- -- 38
2018-12-06 17:00:00 18.4 10 Sudeste 23 Sudeste 0 -- -- 39
2018-12-06 16:00:00 20.5 12 Sudeste 22 Sudeste 0 -- -- 32
2018-12-06 15:00:00 21.5 11 Sudeste 26 Sudeste 0 -- -- 37
2018-12-06 14:00:00 21.4 13 Sudeste 22 Sudeste 0 -- -- 45
2018-12-06 13:00:00 20.9 13 Sudeste 22 Este 0 -- -- 52
2018-12-06 12:00:00 20.6 12 Sudeste 18 Sudeste 0 -- -- 46
2018-12-06 11:00:00 19.9 12 Sudeste 23 Sudeste 0 -- -- 48
2018-12-06 10:00:00 18.2 15 Sudeste 32 Sudeste 0 -- -- 46
2018-12-06 09:00:00 15.3 23 Sudeste 40 Sudeste 0 -- -- 51
2018-12-06 08:00:00 13.8 25 Sudeste 39 Sudeste 0 -- -- 49
2018-12-06 07:00:00 13.6 22 Sudeste 43 Sudeste 0 -- -- 53
2018-12-06 06:00:00 14.2 31 Sudeste 48 Sudeste 0 -- -- 53
2018-12-06 05:00:00 13.5 26 Sudeste 43 Sudeste 0 -- -- 60
2018-12-06 04:00:00 13.7 28 Sudeste 43 Sudeste 0 -- -- 62
2018-12-06 03:00:00 14 29 Sudeste 58 Sudeste 0 -- -- 58
2018-12-06 02:00:00 14 30 Sudeste 53 Sudeste 0 -- -- 58
2018-12-06 01:00:00 14.8 35 Sudeste 60 Sudeste 0 -- -- 49
2018-12-06 00:00:00 15.8 40 Sudeste 56 Sudeste 0 -- -- 36
2018-12-05 23:00:00 15.7 30 Sudeste 49 Sudeste 0 -- -- 34
2018-12-05 22:00:00 14.8 28 Sudeste 44 Sudeste 0 -- -- 37
2018-12-05 21:00:00 14.3 28 Sudeste 38 Sudeste 0 -- -- 38
2018-12-05 20:00:00 13.6 23 Sudeste 37 Sudeste 0 -- -- 42
2018-12-05 19:00:00 15.3 21 Sudeste 40 Sudeste 0 -- -- 38
2018-12-05 18:00:00 15.9 27 Sudeste 50 Sudeste 0 -- -- 38
2018-12-05 17:00:00 17.9 33 Sudeste 46 Sudeste 0 -- -- 39
2018-12-05 16:00:00 18.8 26 Sudeste 35 Sudeste 0 -- -- 39
2018-12-05 15:00:00 19.4 21 Sudeste 33 Sudeste 0 -- -- 39
2018-12-05 14:00:00 20.2 16 Sudeste 33 Sudeste 0 -- -- 36
2018-12-05 13:00:00 19.9 21 Sudeste 38 Sudeste 0 -- -- 42
2018-12-05 12:00:00 20.4 18 Sudeste 37 Sudeste 0 -- -- 39
2018-12-05 11:00:00 19.2 23 Sudeste 42 Sudeste 0 -- -- 39
2018-12-05 10:00:00 18 27 Sudeste 43 Sudeste 0 -- -- 38
2018-12-05 09:00:00 16.1 27 Sudeste 48 Sudeste 0 -- -- 40
2018-12-05 08:00:00 15 28 Sudeste 43 Sudeste 0 -- -- 41
2018-12-05 07:00:00 14.7 30 Sudeste 42 Sudeste 0 -- -- 41
2018-12-05 06:00:00 14.9 25 Sudeste 38 Sudeste 0 -- -- 41
2018-12-05 05:00:00 14.5 23 Sudeste 40 Sudeste 0 -- -- 48
2018-12-05 04:00:00 14 22 Sudeste 36 Sudeste 0 -- -- 54
2018-12-05 03:00:00 14.7 23 Sudeste 39 Sudeste 0 -- -- 50
2018-12-05 02:00:00 15.2 27 Sudeste 51 Sudeste 0 -- -- 45
2018-12-05 01:00:00 16.3 41 Sudeste 60 Sudeste 0 -- -- 42
2018-12-05 00:00:00 16 32 Sudeste 47 Sudeste 0 -- -- 41
2018-12-04 23:00:00 16.2 29 Sudeste 44 Sudeste 0 -- -- 41
2018-12-04 22:00:00 15.7 22 Sudeste 38 Sudeste 0 -- -- 43
2018-12-04 21:00:00 14.1 12 Sudeste 15 Sudeste 0 -- -- 48
2018-12-04 20:00:00 15.4 4 Sudeste 8 Sudeste 0 -- -- 40
2018-12-04 19:00:00 16.5 3 Sur 6 Sur 0 -- -- 40
2018-12-04 18:00:00 16.7 3 Sur 16 Sudeste 0 -- -- 46
2018-12-04 17:00:00 20.2 10 Sudeste 17 Este 0 -- -- 41
2018-12-04 16:00:00 21.1 3 Noroeste 14 Este 0 -- -- 42
2018-12-04 15:00:00 20.6 3 Norte 14 Norte 0 -- -- 40
2018-12-04 14:00:00 21 8 Norte 14 Norte 0 -- -- 39
2018-12-04 13:00:00 22 5 Nordeste 19 Este 0 -- -- 44
2018-12-04 12:00:00 22.3 11 Este 21 Sudeste 0 -- -- 36
2018-12-04 11:00:00 22.2 10 Este 32 Sudeste 0 -- -- 33
2018-12-04 10:00:00 20 21 Sudeste 37 Sudeste 0 -- -- 35
2018-12-04 09:00:00 16.4 11 Sudeste 37 Sudeste 0 -- -- 42
2018-12-04 08:00:00 15 19 Sudeste 36 Sudeste 0 -- -- 41
2018-12-04 07:00:00 14.3 20 Sudeste 44 Sudeste 0 -- -- 41
2018-12-04 06:00:00 14.2 19 Sudeste 33 Sudeste 0 -- -- 40
2018-12-04 05:00:00 13.8 15 Sudeste 26 Sudeste 0 -- -- 44
2018-12-04 04:00:00 15.7 18 Sudeste 38 Sudeste 0 -- -- 39
2018-12-04 03:00:00 15.3 21 Sudeste 36 Sudeste 0 -- -- 37
2018-12-04 02:00:00 15 21 Sudeste 30 Sudeste 0 -- -- 39
2018-12-04 01:00:00 17 5 Sur 9 Sur 0 -- -- 25
2018-12-04 00:00:00 16.1 6 Sudeste 19 Sudeste 0 -- -- 24
2018-12-03 23:00:00 15.4 19 Sudeste 30 Sudeste 0 -- -- 30
2018-12-03 22:00:00 14.7 22 Sudeste 26 Sudeste 0 -- -- 41
2018-12-03 21:00:00 15.4 4 Sudoeste 7 Sudoeste 0 -- -- 38
2018-12-03 20:00:00 15.1 6 Sudeste 8 Sudeste 0 -- -- 39
2018-12-03 19:00:00 14.6 3 Sudeste 7 Sudeste 0 -- -- 73
2018-12-03 18:00:00 16.3 6 Sudeste 8 Sudeste 0 -- -- 72
2018-12-03 17:00:00 23.6 0 Calma 7 Este 0 -- -- 48
2018-12-03 16:00:00 21.4 4 Norte 9 Norte 0 -- -- 36
2018-12-03 15:00:00 20.7 3 Este 8 Noroeste 0 -- -- 67
2018-12-03 14:00:00 20.9 5 Norte 15 Sudeste 0 -- -- 64
2018-12-03 13:00:00 21.3 11 Sudeste 18 Este 0 -- -- 53
2018-12-03 12:00:00 19.4 3 Norte 7 Noroeste 0 -- -- 39
2018-12-03 11:00:00 19.6 2 Noroeste 5 Norte 0 -- -- 27
2018-12-03 10:00:00 19.3 2 Noroeste 9 Noroeste 0 -- -- 26
2018-12-03 09:00:00 15.9 6 Noroeste 9 Noroeste 0 -- -- 36
2018-12-03 08:00:00 13 7 Sudeste 10 Sudeste 0 -- -- 38
2018-12-03 07:00:00 11.8 5 Sudeste 8 Sudeste 0 -- -- 48
2018-12-03 06:00:00 13.1 7 Sur 17 Sudeste 0 -- -- 33
2018-12-03 05:00:00 10.3 13 Sudeste 18 Sudeste 0 -- -- 57
2018-12-03 04:00:00 10.9 12 Sudeste 13 Sudeste 0 -- -- 55
2018-12-03 03:00:00 13.9 4 Sudeste 5 Sudeste 0 -- -- 41
2018-12-03 02:00:00 14.8 3 Sudeste 4 Este 0 -- -- 38
2018-12-03 01:00:00 14 0 Calma 8 Sudeste 0 -- -- 43
2018-12-03 00:00:00 13 7 Sudeste 13 Este 0 -- -- 50
2018-12-02 23:00:00 14.5 4 Nordeste 6 Norte 0 -- -- 42
2018-12-02 22:00:00 16 2 Oeste 10 Oeste 0 -- -- 45
2018-12-02 21:00:00 14.6 4 Noroeste 5 Noroeste 0 -- -- 54
2018-12-02 20:00:00 14.2 3 Noroeste 4 Oeste 0 -- -- 71
2018-12-02 19:00:00 13.7 3 Noroeste 9 Norte 0 -- -- 85
2018-12-02 18:00:00 12.6 4 Sudeste 14 Sudeste 0 -- -- 95
2018-12-02 17:00:00 16.3 8 Sudeste 12 Sudeste 0 -- -- 81
2018-12-02 16:00:00 17.6 6 Este 14 Sudeste 0 -- -- 81
2018-12-02 15:00:00 18 8 Sudeste 12 Sudeste 0 -- -- 76
2018-12-02 14:00:00 17.1 5 Noroeste 16 Este 0 -- -- 79
2018-12-02 13:00:00 17.5 8 Sudeste 28 Este 0 -- -- 75
2018-12-02 12:00:00 15.7 20 Este 31 Sudeste 0 -- -- 84
2018-12-02 11:00:00 13.4 20 Sudeste 28 Este 0 -- -- 89
2018-12-02 10:00:00 12.5 18 Sudeste 28 Sudeste 0 -- -- 93
2018-12-02 09:00:00 11.4 15 Sudeste 25 Sudeste 0 -- -- 97
2018-12-02 08:00:00 10.8 18 Sudeste 26 Sudeste 0 -- -- 99
2018-12-02 07:00:00 10.8 12 Sudeste 25 Este 0 -- -- 99
2018-12-02 06:00:00 10.6 13 Sudeste 19 Sudeste 0 -- -- 99
2018-12-02 05:00:00 10.5 9 Sudeste 18 Este 0 -- -- 99
2018-12-02 04:00:00 11.1 7 Sudeste 19 Sudeste 0 -- -- 99
2018-12-02 03:00:00 10.9 16 Sudeste 26 Sudeste 0 -- -- 99
2018-12-02 02:00:00 11 16 Sudeste 25 Sudeste 0 -- -- 99
2018-12-02 01:00:00 10.7 16 Sudeste 26 Sudeste 0 -- -- 99
2018-12-02 00:00:00 10.4 12 Sudeste 16 Sudeste 0 -- -- 98
2018-12-01 23:00:00 10.6 8 Sudeste 15 Este 0 -- -- 97
2018-12-01 22:00:00 10.4 9 Sudeste 12 Sudeste 0 -- -- 90
2018-12-01 21:00:00 12.5 3 Sudoeste 7 Sur 0 -- -- 80
2018-12-01 20:00:00 11.8 3 Sudeste 12 Sudeste 0 -- -- 90
2018-12-01 19:00:00 11.2 5 Sudeste 13 Sudeste 0 -- -- 94
2018-12-01 18:00:00 12.9 8 Sudeste 19 Sudeste 0 -- -- 93
2018-12-01 17:00:00 14.2 9 Este 18 Sudeste 0 -- -- 90
2018-12-01 16:00:00 15.2 10 Este 17 Este 0 -- -- 87
2018-12-01 15:00:00 16.1 13 Este 21 Este 0 -- -- 84
2018-12-01 14:00:00 15.8 12 Este 26 Este 0 -- -- 87
2018-12-01 13:00:00 17.3 17 Este 23 Este 0 -- -- 81
2018-12-01 12:00:00 15.1 13 Sudeste 25 Sudeste 0 -- -- 92
2018-12-01 11:00:00 15.3 14 Sudeste 27 Sudeste 0 -- -- 86
2018-12-01 10:00:00 13.3 17 Sudeste 24 Sudeste 0 -- -- 97
2018-12-01 09:00:00 12.5 12 Sudeste 31 Sudeste 0 -- -- 95
2018-12-01 08:00:00 12 17 Sudeste 25 Sudeste 0 -- -- 97
2018-12-01 07:00:00 11.6 15 Sudeste 27 Este 0 -- -- 97
2018-12-01 06:00:00 11.4 22 Sudeste 31 Sudeste 0 -- -- 95
2018-12-01 05:00:00 11.6 18 Sudeste 30 Sudeste 0 -- -- 97
2018-12-01 04:00:00 10.8 17 Sudeste 30 Este 0 -- -- 98
2018-12-01 03:00:00 10.6 23 Sudeste 28 Sudeste 0 -- -- 99
2018-12-01 02:00:00 10.6 21 Sudeste 26 Sudeste 0 -- -- 99
2018-12-01 01:00:00 10.7 15 Sudeste 22 Este 0 -- -- 98
2018-12-01 00:00:00 10.8 19 Sudeste 23 Este 0 -- -- 97
2018-11-30 23:00:00 10.6 18 Sudeste 21 Este 0 -- -- 94
2018-11-30 22:00:00 10.9 10 Sudeste 13 Sudeste 0 -- -- 66
2018-11-30 21:00:00 12.5 6 Sudeste 8 Sudeste 0 -- -- 54
2018-11-30 20:00:00 13.2 3 Sudeste 9 Nordeste 0 -- -- 50
2018-11-30 19:00:00 14 5 Nordeste 8 Norte 0 -- -- 48
2018-11-30 18:00:00 14.8 3 Nordeste 6 Sudeste 0 -- -- 58
2018-11-30 17:00:00 18.8 6 Sudeste 9 Sudeste 0 -- -- 72
2018-11-30 16:00:00 19.4 2 Este 8 Norte 0 -- -- 71
2018-11-30 15:00:00 18.3 3 Norte 10 Este 0 -- -- 76
2018-11-30 14:00:00 19.2 5 Sudeste 14 Sudeste 0 -- -- 72
2018-11-30 13:00:00 19.1 10 Este 18 Este 0 -- -- 67
2018-11-30 12:00:00 19.2 11 Sudeste 18 Sudeste 0 -- -- 66
2018-11-30 11:00:00 19.3 7 Este 15 Este 0 -- -- 46
2018-11-30 10:00:00 17.4 9 Sudeste 20 Sudeste 0 -- -- 54
2018-11-30 09:00:00 14.7 14 Sudeste 18 Sudeste 0 -- -- 58
2018-11-30 08:00:00 12.6 17 Sudeste 23 Sudeste 0 -- -- 56
2018-11-30 07:00:00 9.9 13 Sudeste 18 Sudeste 0 -- -- 70
2018-11-30 06:00:00 12 6 Sudeste 11 Sudeste 0 -- -- 53
2018-11-30 05:00:00 11.9 8 Sudeste 14 Sudeste 0 -- -- 54
2018-11-30 04:00:00 12.9 12 Sudeste 17 Sudeste 0 -- -- 50
2018-11-30 03:00:00 12.3 14 Sudeste 17 Sudeste 0 -- -- 55
2018-11-30 02:00:00 12 8 Sudeste 12 Sudeste 0 -- -- 58
2018-11-30 01:00:00 12.6 8 Sudeste 16 Sudeste 0 -- -- 53
2018-11-30 00:00:00 12.7 9 Sudeste 14 Sudeste 0 -- -- 59
2018-11-29 23:00:00 12.2 9 Sudeste 14 Sudeste 0 -- -- 61
2018-11-29 22:00:00 13.5 9 Sudeste 12 Sudeste 0 -- -- 56
2018-11-29 21:00:00 13.1 9 Sudeste 10 Sudeste 0 -- -- 60
2018-11-29 20:00:00 14.1 4 Este 8 Sudeste 0 -- -- 63
2018-11-29 19:00:00 15.1 4 Este 5 Este 0 -- -- 56
2018-11-29 18:00:00 16.2 0 Calma 11 Sudeste 0 -- -- 71
2018-11-29 17:00:00 19 9 Sudeste 14 Este 0 -- -- 72
2018-11-29 16:00:00 20.9 8 Sudeste 19 Sudeste 0 -- -- 65
2018-11-29 15:00:00 20.3 13 Este 21 Este 0 -- -- 66
2018-11-29 14:00:00 20.7 10 Este 17 Este 0 -- -- 57
2018-11-29 13:00:00 21.2 11 Este 23 Este 0 -- -- 54
2018-11-29 12:00:00 20.4 18 Sudeste 24 Este 0 -- -- 42
2018-11-29 11:00:00 19.5 17 Este 22 Sudeste 0 -- -- 45
2018-11-29 10:00:00 18.2 10 Sudeste 14 Sudeste 0 -- -- 48
2018-11-29 09:00:00 15.8 12 Sudeste 22 Este 0 -- -- 49
2018-11-29 08:00:00 13.9 15 Este 20 Este 0 -- -- 51
2018-11-29 07:00:00 11.6 10 Sudeste 15 Este 0 -- -- 55
2018-11-29 06:00:00 12.6 13 Este 15 Este 0 -- -- 53
2018-11-29 05:00:00 12 13 Sudeste 19 Sudeste 0 -- -- 58
2018-11-29 04:00:00 13 15 Sudeste 26 Sudeste 0 -- -- 54
2018-11-29 03:00:00 13 17 Sudeste 23 Sudeste 0 -- -- 57
2018-11-29 02:00:00 12 13 Sudeste 16 Sudeste 0 -- -- 64
2018-11-29 01:00:00 14.5 3 Oeste 5 Oeste 0 -- -- 60
2018-11-29 00:00:00 14.4 0 Calma 5 Noroeste 0 -- -- 59
2018-11-28 23:00:00 14.1 0 Calma 5 Oeste 0 -- -- 70
2018-11-28 22:00:00 12.8 4 Oeste 8 Noroeste 0 -- -- 86
2018-11-28 21:00:00 12.8 5 Norte 11 Sudeste 0 -- -- 91
2018-11-28 20:00:00 13.6 2 Sudeste 5 Sudeste 0 -- -- 95
2018-11-28 12:00:00 -- -- -- -- -- -- -- -- --
2018-11-28 11:00:00 18.4 8 Este 21 Sudeste 0 -- -- 68
2018-11-28 10:00:00 17.2 19 Sudeste 24 Este 0 -- -- 62
2018-11-28 09:00:00 16.8 9 Sudeste 10 Este 0 -- -- 40
2018-11-28 08:00:00 15.6 3 Sudoeste 5 Norte 0 -- -- 39
2018-11-28 07:00:00 14.9 5 Sudeste 15 Sudeste 0 -- -- 22
2018-11-28 06:00:00 11.9 9 Sudeste 13 Sudeste 0 -- -- 77
2018-11-28 05:00:00 12.8 9 Sudeste 17 Sudeste 0 -- -- 33
2018-11-28 04:00:00 11.7 11 Sudeste 17 Sudeste 0 -- -- 43
2018-11-28 03:00:00 12.4 17 Sudeste 23 Sudeste 0 -- -- 42
2018-11-28 02:00:00 11.7 19 Sudeste 25 Sudeste 0 -- -- 37
2018-11-28 01:00:00 10.5 18 Sudeste 26 Sudeste 0 -- -- 41
2018-11-28 00:00:00 8.9 21 Sudeste 26 Sudeste 0 -- -- 96
2018-11-27 23:00:00 9.8 16 Sudeste 19 Sudeste 0 -- -- 99
2018-11-27 22:00:00 9.7 15 Sudeste 19 Sudeste 0 -- -- 99
2018-11-27 21:00:00 9.9 14 Sudeste 17 Este 0 -- -- 99
2018-11-27 20:00:00 10.4 13 Sudeste 17 Sudeste 0 -- -- 98
2018-11-27 19:00:00 9.8 10 Sudeste 13 Sudeste 0 -- -- 96
2018-11-27 18:00:00 11.6 7 Sudeste 10 Sudeste 0 -- -- 94
2018-11-27 17:00:00 13 5 Este 9 Nordeste 0 -- -- 88
2018-11-27 16:00:00 17.3 2 Norte 8 Oeste 0 -- -- 69
2018-11-27 15:00:00 16.1 2 Este 12 Este 0 -- -- 82
2018-11-27 14:00:00 17.5 8 Sudeste 18 Este 0 -- -- 82
2018-11-27 13:00:00 16.7 8 Este 15 Este 0 -- -- 86
2018-11-27 12:00:00 16.8 4 Este 18 Sudeste 0 -- -- 81
2018-11-27 11:00:00 15.3 8 Sudeste 15 Sudeste 0 -- -- 90
2018-11-27 10:00:00 14.1 7 Sudeste 14 Sudeste 0 -- -- 93
2018-11-27 09:00:00 13.9 13 Sudeste 18 Este 0 -- -- 91
2018-11-27 08:00:00 11.6 9 Sur 13 Sur 0 -- -- 98
2018-11-27 07:00:00 11.5 9 Sudeste 15 Sudeste 0 -- -- 97
2018-11-27 06:00:00 11.8 10 Sudeste 18 Sur 0 -- -- 98
2018-11-27 05:00:00 10.5 10 Sudeste 12 Sudeste 0 -- -- 98
2018-11-27 04:00:00 11.4 4 Este 8 Nordeste 0 -- -- 96
2018-11-27 03:00:00 11.6 4 Norte 8 Norte 0 -- -- 94
2018-11-27 02:00:00 12.4 3 Sudoeste 8 Sudeste 0 -- -- 90
2018-11-27 01:00:00 12.7 5 Sur 9 Sur 0 -- -- 83
2018-11-27 00:00:00 12.6 4 Norte 5 Norte 0 -- -- 92
2018-11-26 23:00:00 13 4 Norte 8 Norte 0 -- -- 89
2018-11-26 22:00:00 13.8 4 Noroeste 10 Sudeste 0 -- -- 85
2018-11-26 21:00:00 12.2 9 Sudeste 21 Sudeste 0 -- -- 98
2018-11-26 20:00:00 12.8 12 Sudeste 14 Sudeste 0 -- -- 98
2018-11-26 19:00:00 13.6 4 Sudeste 8 Este 0 -- -- 97
2018-11-26 18:00:00 14.1 0 Calma 5 Nordeste 0 -- -- 95
2018-11-26 17:00:00 15.4 4 Norte 8 Noroeste 0 -- -- 90
2018-11-26 16:00:00 15.1 5 Noroeste 14 Noroeste 0 -- -- 91
2018-11-26 15:00:00 17.4 3 Este 9 Este 0 -- -- 87
2018-11-26 14:00:00 16.2 2 Nordeste 6 Norte 0 -- -- 92
2018-11-26 13:00:00 15.7 4 Este 13 Norte 0.4 -- -- 97
2018-11-26 12:00:00 14.4 5 Nordeste 13 Este 0 -- -- 98
2018-11-26 11:00:00 14.7 4 Norte 10 Norte 0 -- -- 98
2018-11-26 10:00:00 14.3 0 Calma 10 Nordeste 0.4 -- -- 100
2018-11-26 09:00:00 13.6 2 Nordeste 9 Sudeste 0.4 -- -- 100
2018-11-26 08:00:00 13.2 0 Calma 6 Sudeste 0 -- -- 100
2018-11-26 07:00:00 13.2 0 Calma 8 Este 0.2 -- -- 100
2018-11-26 06:00:00 12.9 2 Nordeste 7 Nordeste 0 -- -- 99
2018-11-26 05:00:00 12.6 2 Sudoeste 7 Norte 0 -- -- 99
2018-11-26 04:00:00 12.7 3 Sudoeste 8 Sur 0 -- -- 99
2018-11-26 03:00:00 12.9 3 Norte 13 Este 0 -- -- 99
2018-11-26 02:00:00 11.4 10 Sudeste 13 Sudeste 0 -- -- 94
2018-11-26 01:00:00 12.9 2 Este 6 Este 0 -- -- 92
2018-11-26 00:00:00 12.4 2 Sudeste 6 Sudeste 0 -- -- 86
2018-11-25 23:00:00 13.1 2 Oeste 11 Oeste 0 -- -- 96
2018-11-25 22:00:00 12.5 7 Oeste 11 Oeste 0 -- -- 97
2018-11-25 21:00:00 13.2 7 Oeste 13 Oeste 0 -- -- 97
2018-11-25 20:00:00 13.2 10 Noroeste 14 Noroeste 0 -- -- 98
2018-11-25 19:00:00 13.1 11 Oeste 17 Oeste 0 -- -- 97
2018-11-25 18:00:00 14.2 12 Oeste 23 Oeste 0 -- -- 93
2018-11-25 17:00:00 17 13 Noroeste 22 Oeste 0 -- -- 83
2018-11-25 16:00:00 17 11 Noroeste 23 Noroeste 0 -- -- 84
2018-11-25 15:00:00 18.1 13 Noroeste 21 Noroeste 0 -- -- 83
2018-11-25 14:00:00 19 13 Noroeste 22 Noroeste 0 -- -- 81
2018-11-25 13:00:00 18.4 10 Noroeste 24 Norte 0 -- -- 81
2018-11-25 12:00:00 18.2 14 Noroeste 23 Noroeste 0 -- -- 81
2018-11-25 11:00:00 17.6 9 Noroeste 15 Noroeste 0 -- -- 88
2018-11-25 10:00:00 16.3 10 Noroeste 17 Noroeste 0 -- -- 90
2018-11-25 09:00:00 15 10 Noroeste 23 Oeste 0 -- -- 93
2018-11-25 08:00:00 14.5 14 Oeste 26 Oeste 0 -- -- 95
2018-11-25 07:00:00 14.2 15 Oeste 24 Oeste 0 -- -- 96
2018-11-25 06:00:00 14.1 17 Oeste 30 Oeste 0 -- -- 95
2018-11-25 05:00:00 14.2 16 Oeste 29 Oeste 0 -- -- 94
2018-11-25 04:00:00 14.4 16 Oeste 25 Oeste 0 -- -- 94
2018-11-25 03:00:00 14 15 Oeste 23 Oeste 0 -- -- 94
2018-11-25 02:00:00 13.6 14 Oeste 24 Oeste 0 -- -- 95
2018-11-25 01:00:00 13.2 10 Oeste 25 Oeste 0 -- -- 96
2018-11-25 00:00:00 13.7 17 Oeste 31 Noroeste 0 -- -- 95
2018-11-24 23:00:00 13.9 16 Oeste 30 Oeste 0 -- -- 94
2018-11-24 22:00:00 13.4 18 Oeste 30 Oeste 0 -- -- 95
2018-11-24 21:00:00 13.4 14 Oeste 26 Oeste 0 -- -- 90
2018-11-24 20:00:00 12.5 14 Oeste 23 Oeste 0 -- -- 86
2018-11-24 19:00:00 11.6 9 Noroeste 18 Oeste 0 -- -- 90
2018-11-24 18:00:00 12.5 0 Calma 6 Noroeste 0 -- -- 87
2018-11-24 17:00:00 16.2 4 Noroeste 12 Sudeste 0 -- -- 71
2018-11-24 16:00:00 16.2 12 Sudeste 15 Sudeste 0 -- -- 73
2018-11-24 15:00:00 17.2 6 Norte 18 Sudeste 0 -- -- 66
2018-11-24 14:00:00 16.8 8 Sudeste 15 Este 0 -- -- 68
2018-11-24 13:00:00 16.9 6 Sudeste 13 Sudeste 0 -- -- 67
2018-11-24 12:00:00 14.8 2 Norte 10 Oeste 0 -- -- 52
2018-11-24 11:00:00 13.5 8 Oeste 19 Oeste 0 -- -- 62
2018-11-24 10:00:00 12.5 8 Noroeste 12 Noroeste 0 -- -- 87
2018-11-24 09:00:00 9.8 10 Noroeste 17 Oeste 0 -- -- 92
2018-11-24 08:00:00 8.6 12 Oeste 17 Oeste 0 -- -- 93
2018-11-24 07:00:00 8.3 12 Oeste 17 Oeste 0 -- -- 96
2018-11-24 06:00:00 8.5 12 Oeste 18 Oeste 0 -- -- 98
2018-11-24 05:00:00 8.4 12 Oeste 18 Oeste 0 -- -- 98
2018-11-24 04:00:00 8.4 9 Oeste 13 Oeste 0 -- -- 97
2018-11-24 03:00:00 8.1 4 Sudoeste 9 Oeste 0 -- -- 97
2018-11-24 02:00:00 8.5 6 Oeste 10 Oeste 0.2 -- -- 97
2018-11-24 01:00:00 8.3 4 Oeste 8 Oeste 0 -- -- 98
2018-11-24 00:00:00 8.5 5 Sudoeste 12 Oeste 0 -- -- 99
2018-11-23 23:00:00 8.8 6 Oeste 12 Oeste 0 -- -- 100
2018-11-23 22:00:00 9 8 Oeste 14 Oeste 0 -- -- 100
2018-11-23 21:00:00 9.6 7 Noroeste 15 Noroeste 0 -- -- 100
2018-11-23 20:00:00 9.8 5 Noroeste 16 Noroeste 0.4 -- -- 100
2018-11-23 19:00:00 9.9 9 Noroeste 24 Noroeste 0.6 -- -- 100
2018-11-23 18:00:00 10 8 Noroeste 19 Noroeste 0 -- -- 99
2018-11-23 17:00:00 10.7 10 Noroeste 20 Noroeste 0.6 -- -- 98
2018-11-23 16:00:00 11.3 12 Noroeste 24 Noroeste 0.2 -- -- 95
2018-11-23 15:00:00 11.8 14 Noroeste 26 Noroeste 1.4 -- -- 100
2018-11-23 14:00:00 11.6 14 Noroeste 33 Noroeste 0.6 -- -- 100
2018-11-23 13:00:00 11.7 17 Noroeste 31 Noroeste 0 -- -- 100
2018-11-23 12:00:00 10.5 15 Noroeste 28 Noroeste 0 -- -- 100
2018-11-23 11:00:00 10.6 14 Noroeste 30 Noroeste 0.8 -- -- 100
2018-11-23 10:00:00 9.2 13 Noroeste 30 Oeste 3.4 -- -- 100
2018-11-23 09:00:00 9 15 Noroeste 30 Noroeste 0.4 -- -- 100
2018-11-23 08:00:00 8.2 18 Noroeste 33 Norte 3.6 -- -- 100
2018-11-23 07:00:00 7.9 6 Noroeste 23 Oeste 7.4 -- -- 100
2018-11-23 06:00:00 8.2 13 Noroeste 42 Norte 1.6 -- -- 100
2018-11-23 05:00:00 9.1 9 Noroeste 33 Norte 3.8 -- -- 100
2018-11-23 04:00:00 8.5 17 Oeste 28 Oeste 2.8 -- -- 100
2018-11-23 03:00:00 9 9 Oeste 29 Oeste 3.4 -- -- 100
2018-11-23 02:00:00 8.7 8 Oeste 19 Noroeste 4.2 -- -- 100
2018-11-23 01:00:00 9 12 Oeste 21 Noroeste 1.4 -- -- 100
2018-11-23 00:00:00 9.4 13 Oeste 25 Oeste 1.4 -- -- 100
2018-11-22 23:00:00 9.2 15 Oeste 30 Oeste 2.4 -- -- 100
2018-11-22 22:00:00 8.6 16 Oeste 27 Oeste 0.2 -- -- 100
2018-11-22 21:00:00 9.7 14 Noroeste 28 Noroeste 3.8 -- -- 100
2018-11-22 20:00:00 10.2 10 Noroeste 23 Noroeste 3 -- -- 100
2018-11-22 19:00:00 10.6 15 Noroeste 26 Noroeste 2.4 -- -- 100
2018-11-22 18:00:00 10.6 12 Oeste 22 Norte 1.2 -- -- 99
2018-11-22 17:00:00 11 13 Noroeste 29 Norte 11.4 -- -- 99
2018-11-22 16:00:00 12.2 14 Norte 28 Norte 0 -- -- 96
2018-11-22 15:00:00 12.4 12 Noroeste 27 Noroeste 0 -- -- 99
2018-11-22 14:00:00 13.1 10 Noroeste 18 Norte 0 -- -- 96
2018-11-22 13:00:00 14.7 3 Nordeste 10 Este 0 -- -- 91
2018-11-22 12:00:00 13.6 2 Norte 9 Nordeste 0.2 -- -- 97
2018-11-22 11:00:00 12.6 4 Norte 12 Noroeste 0.4 -- -- 97
2018-11-22 10:00:00 11.8 6 Noroeste 23 Oeste 0.2 -- -- 96
2018-11-22 09:00:00 11.5 16 Oeste 30 Oeste 0.4 -- -- 94
2018-11-22 08:00:00 11.2 18 Oeste 36 Oeste 0.4 -- -- 97
2018-11-22 07:00:00 11.7 7 Noroeste 12 Oeste 2.8 -- -- 99
2018-11-22 06:00:00 11.7 3 Oeste 9 Oeste 2.2 -- -- 98
2018-11-22 05:00:00 11.8 3 Noroeste 9 Este 0 -- -- 97
2018-11-22 04:00:00 11.7 3 Sudeste 6 Sudeste 0 -- -- 95
2018-11-22 03:00:00 11.8 7 Este 10 Este 0 -- -- 94
2018-11-22 02:00:00 11.7 5 Sudeste 10 Este 0 -- -- 92
2018-11-22 01:00:00 11.7 10 Sudeste 20 Sudeste 0 -- -- 90
2018-11-22 00:00:00 11.5 5 Sudeste 9 Sudeste 0 -- -- 89
2018-11-21 23:00:00 11.8 0 Calma 12 Sudeste 0 -- -- 86
2018-11-21 22:00:00 12 2 Sudoeste 16 Noroeste 0 -- -- 87
2018-11-21 21:00:00 13.2 3 Noroeste 14 Este 0 -- -- 73
2018-11-21 20:00:00 12.1 9 Este 13 Este 0 -- -- 82
2018-11-21 19:00:00 11.4 9 Sudeste 14 Sudeste 0 -- -- 93
2018-11-21 18:00:00 12.8 9 Sudeste 12 Sudeste 0 -- -- 88
2018-11-21 17:00:00 17.1 4 Noroeste 9 Este 0 -- -- 70
2018-11-21 16:00:00 19.5 3 Este 15 Noroeste 0 -- -- 60
2018-11-21 15:00:00 18.2 7 Norte 15 Noroeste 0 -- -- 63
2018-11-21 14:00:00 18.1 4 Norte 11 Este 0 -- -- 62
2018-11-21 13:00:00 15.9 4 Este 11 Norte 0 -- -- 79
2018-11-21 12:00:00 16.7 6 Norte 12 Este 0 -- -- 72
2018-11-21 11:00:00 18.1 6 Sudeste 13 Sudeste 0 -- -- 56
2018-11-21 10:00:00 16 3 Norte 6 Norte 0 -- -- 59
2018-11-21 09:00:00 14 5 Este 12 Nordeste 0 -- -- 62
2018-11-21 08:00:00 11.7 5 Sur 15 Sudeste 0 -- -- 72
2018-11-21 07:00:00 10.2 10 Sudeste 11 Sudeste 0 -- -- 79
2018-11-21 06:00:00 11.4 3 Sudeste 7 Sur 0 -- -- 73
2018-11-21 05:00:00 11.5 3 Norte 5 Norte 0 -- -- 83
2018-11-21 04:00:00 11 3 Norte 8 Nordeste 0 -- -- 87
2018-11-21 03:00:00 12.1 4 Noroeste 7 Este 0 -- -- 83
2018-11-21 02:00:00 10.5 6 Sudeste 9 Este 0 -- -- 95
2018-11-21 01:00:00 11 8 Este 10 Este 0 -- -- 94
2018-11-21 00:00:00 11.5 5 Sur 11 Sudeste 0 -- -- 87
2018-11-20 23:00:00 10.4 8 Sudeste 15 Oeste 0 -- -- 86
2018-11-20 22:00:00 11.6 10 Oeste 17 Oeste 0 -- -- 82
2018-11-20 21:00:00 11.8 12 Oeste 19 Oeste 0 -- -- 76
2018-11-20 20:00:00 11.4 6 Noroeste 12 Noroeste 0 -- -- 93
2018-11-20 19:00:00 12.7 0 Calma 4 Oeste 0 -- -- 97
2018-11-20 18:00:00 13.4 0 Calma 4 Oeste 0 -- -- 93
2018-11-20 17:00:00 15.5 2 Este 10 Este 0 -- -- 86
2018-11-20 16:00:00 15.3 0 Calma 7 Nordeste 0 -- -- 86
2018-11-20 15:00:00 15.9 4 Norte 9 Nordeste 0 -- -- 85
2018-11-20 14:00:00 15.7 5 Norte 12 Este 0 -- -- 84
2018-11-20 13:00:00 15.1 5 Norte 10 Norte 0 -- -- 85
2018-11-20 12:00:00 14.1 5 Norte 8 Norte 0 -- -- 90
2018-11-20 11:00:00 14.2 3 Norte 8 Noroeste 0 -- -- 89
2018-11-20 10:00:00 14.9 3 Noroeste 10 Oeste 0 -- -- 83
2018-11-20 09:00:00 12.1 7 Oeste 13 Oeste 0 -- -- 92
2018-11-20 08:00:00 10.7 8 Oeste 12 Oeste 0 -- -- 92
2018-11-20 07:00:00 10 7 Oeste 18 Oeste 0 -- -- 95
2018-11-20 06:00:00 10.2 13 Oeste 21 Oeste 0 -- -- 98
2018-11-20 05:00:00 9.4 13 Oeste 21 Oeste 0 -- -- 100
2018-11-20 04:00:00 8.9 12 Oeste 19 Oeste 0 -- -- 100
2018-11-20 03:00:00 10 15 Oeste 23 Oeste 0 -- -- 100
2018-11-20 02:00:00 10.6 15 Oeste 27 Noroeste 0 -- -- 100
2018-11-20 01:00:00 11.1 16 Oeste 28 Oeste 0.2 -- -- 100
2018-11-20 00:00:00 11.2 13 Noroeste 29 Noroeste 0.2 -- -- 100
2018-11-19 23:00:00 11.2 14 Noroeste 28 Noroeste 0.2 -- -- 100
2018-11-19 22:00:00 11.2 15 Noroeste 31 Noroeste 0.6 -- -- 100
2018-11-19 21:00:00 11 16 Oeste 26 Oeste 0.6 -- -- 100
2018-11-19 20:00:00 11.2 17 Noroeste 30 Oeste 0.2 -- -- 100
2018-11-19 19:00:00 11.1 13 Noroeste 28 Oeste 0 -- -- 100
2018-11-19 18:00:00 10.8 14 Noroeste 26 Noroeste 0 -- -- 100
2018-11-19 17:00:00 10.9 17 Noroeste 32 Noroeste 0.2 -- -- 99
2018-11-19 16:00:00 11.7 13 Noroeste 28 Noroeste 0.6 -- -- 99
2018-11-19 15:00:00 11.6 18 Oeste 32 Noroeste 0.4 -- -- 99
2018-11-19 14:00:00 11.5 18 Noroeste 39 Norte 0.4 -- -- 98
2018-11-19 13:00:00 12.2 14 Noroeste 31 Noroeste 0.4 -- -- 96
2018-11-19 12:00:00 11.7 18 Noroeste 39 Oeste 0.2 -- -- 96
2018-11-19 11:00:00 11.8 13 Noroeste 28 Oeste 0 -- -- 97
2018-11-19 10:00:00 11.3 17 Oeste 31 Noroeste 1.6 -- -- 100
2018-11-19 09:00:00 10.8 15 Noroeste 27 Noroeste 0.8 -- -- 99
2018-11-19 08:00:00 10.3 12 Oeste 23 Oeste 0 -- -- 99
2018-11-19 07:00:00 10.2 15 Oeste 23 Oeste 0 -- -- 99
2018-11-19 06:00:00 10 14 Oeste 24 Oeste 0.2 -- -- 99
2018-11-19 05:00:00 9.5 11 Oeste 19 Oeste 0 -- -- 99
2018-11-19 04:00:00 9.1 9 Oeste 23 Oeste 0 -- -- 100
2018-11-19 03:00:00 9.8 15 Oeste 22 Oeste 0.2 -- -- 100
2018-11-19 02:00:00 10.1 14 Oeste 23 Noroeste 4 -- -- 100
2018-11-19 01:00:00 10.2 10 Oeste 26 Oeste 0 -- -- 100
2018-11-19 00:00:00 10.8 17 Noroeste 33 Oeste 0.2 -- -- 100
2018-11-18 23:00:00 10.6 15 Noroeste 30 Noroeste 1.2 -- -- 99
2018-11-18 22:00:00 10.9 17 Noroeste 29 Noroeste 0.2 -- -- 99
2018-11-18 21:00:00 11.1 15 Oeste 25 Oeste 0.4 -- -- 99
2018-11-18 20:00:00 11 16 Oeste 25 Oeste 0.2 -- -- 99
2018-11-18 19:00:00 11.5 11 Noroeste 22 Noroeste 0.4 -- -- 99
2018-11-18 18:00:00 11.5 11 Noroeste 22 Norte 0.4 -- -- 98
2018-11-18 17:00:00 12.6 12 Noroeste 22 Noroeste 0 -- -- 87
2018-11-18 16:00:00 12.3 14 Noroeste 27 Noroeste 0 -- -- 90
2018-11-18 15:00:00 15 14 Noroeste 26 Noroeste 0 -- -- 78
2018-11-18 14:00:00 14.4 10 Noroeste 21 Noroeste 0 -- -- 85
2018-11-18 13:00:00 14.6 15 Oeste 28 Oeste 0 -- -- 82
2018-11-18 12:00:00 13 17 Noroeste 31 Oeste 0 -- -- 86
2018-11-18 11:00:00 12.8 13 Noroeste 23 Oeste 0 -- -- 92
2018-11-18 10:00:00 12 11 Oeste 25 Oeste 0 -- -- 99
2018-11-18 09:00:00 11.6 10 Oeste 21 Oeste 0 -- -- 100
2018-11-18 08:00:00 10.9 13 Oeste 21 Oeste 0.8 -- -- 100
2018-11-18 07:00:00 10.7 11 Oeste 18 Oeste 2 -- -- 100
2018-11-18 06:00:00 10.7 10 Oeste 21 Oeste 0.4 -- -- 100
2018-11-18 05:00:00 10.8 12 Oeste 23 Oeste 0.4 -- -- 100
2018-11-18 04:00:00 10.8 13 Oeste 22 Oeste 0.2 -- -- 100
2018-11-18 03:00:00 10.6 10 Oeste 19 Oeste 0 -- -- 100
2018-11-18 02:00:00 10.6 14 Oeste 23 Noroeste 0 -- -- 100
2018-11-18 01:00:00 11.2 15 Noroeste 28 Oeste 1 -- -- 100
2018-11-18 00:00:00 11.6 14 Noroeste 28 Oeste 1 -- -- 100
2018-11-17 23:00:00 12.3 14 Noroeste 30 Oeste 0.6 -- -- 100
2018-11-17 22:00:00 12.5 17 Noroeste 30 Oeste 1.8 -- -- 100
2018-11-17 21:00:00 12.4 15 Noroeste 32 Noroeste 0.6 -- -- 100
2018-11-17 20:00:00 12.3 17 Noroeste 37 Norte 0.2 -- -- 100
2018-11-17 19:00:00 12.8 21 Noroeste 37 Oeste 4.2 -- -- 99
2018-11-17 18:00:00 12.8 21 Oeste 35 Noroeste 1.2 -- -- 99
2018-11-17 17:00:00 13.7 13 Noroeste 30 Oeste 1 -- -- 99
2018-11-17 16:00:00 13.8 19 Oeste 30 Oeste 2.2 -- -- 98
2018-11-17 15:00:00 15.2 15 Noroeste 37 Oeste 3.6 -- -- 94
2018-11-17 14:00:00 17.3 15 Oeste 38 Oeste 0.2 -- -- 87
2018-11-17 13:00:00 20.3 19 Sudoeste 46 Oeste 0 -- -- 71
2018-11-17 12:00:00 19.4 15 Oeste 44 Sudoeste 0 -- -- 72
2018-11-17 11:00:00 17.8 10 Sudeste 34 Sudoeste 0 -- -- 76
2018-11-17 10:00:00 15.6 6 Norte 32 Oeste 0 -- -- 81
2018-11-17 09:00:00 14.3 12 Este 38 Oeste 0 -- -- 79
2018-11-17 08:00:00 12.1 15 Sudeste 39 Sudeste 0 -- -- 86
2018-11-17 07:00:00 11 12 Sudoeste 29 Sudoeste 0 -- -- 90
2018-11-17 06:00:00 9.7 6 Este 14 Este 0 -- -- 96
2018-11-17 05:00:00 10.5 3 Sudoeste 8 Oeste 0 -- -- 82
2018-11-17 04:00:00 10.2 3 Nordeste 19 Sudeste 0 -- -- 84
2018-11-17 03:00:00 9.1 13 Sudeste 20 Este 0 -- -- 94
2018-11-17 02:00:00 9.2 7 Sudeste 13 Sudeste 0 -- -- 98
2018-11-17 01:00:00 10.3 3 Noroeste 12 Noroeste 0 -- -- 99
2018-11-17 00:00:00 10.6 5 Oeste 8 Oeste 0 -- -- 99
2018-11-16 23:00:00 10.8 5 Oeste 11 Oeste 0 -- -- 98
2018-11-16 22:00:00 11.2 4 Sudeste 18 Sudeste 0 -- -- 98
2018-11-16 21:00:00 11.7 13 Sudeste 17 Sudeste 0 -- -- 97
2018-11-16 20:00:00 11.9 3 Sudeste 14 Este 0 -- -- 97
2018-11-16 19:00:00 12.1 5 Este 18 Este 0 -- -- 95
2018-11-16 18:00:00 12.3 13 Sudeste 20 Sudeste 0 -- -- 94
2018-11-16 17:00:00 13.7 4 Este 12 Sudeste 0 -- -- 87
2018-11-16 16:00:00 14.6 6 Noroeste 18 Noroeste 0 -- -- 84
2018-11-16 15:00:00 16.3 8 Noroeste 19 Noroeste 0 -- -- 74
2018-11-16 14:00:00 14.8 9 Noroeste 16 Noroeste 0 -- -- 81
2018-11-16 13:00:00 16.1 6 Noroeste 17 Noroeste 0 -- -- 76
2018-11-16 12:00:00 15 5 Noroeste 10 Norte 0 -- -- 83
2018-11-16 11:00:00 14.1 5 Norte 10 Noroeste 0 -- -- 88
2018-11-16 10:00:00 14.5 4 Noroeste 13 Oeste 0 -- -- 84
2018-11-16 09:00:00 11.6 9 Oeste 15 Oeste 0 -- -- 93
2018-11-16 08:00:00 10.1 3 Sudoeste 14 Oeste 0 -- -- 97
2018-11-16 07:00:00 9.6 8 Oeste 17 Oeste 0 -- -- 97
2018-11-16 06:00:00 10 10 Oeste 19 Oeste 0 -- -- 98
2018-11-16 05:00:00 10.4 13 Oeste 20 Oeste 0 -- -- 98
2018-11-16 04:00:00 10.7 10 Oeste 18 Oeste 0.2 -- -- 99
2018-11-16 03:00:00 10.5 9 Oeste 16 Oeste 0 -- -- 99
2018-11-16 02:00:00 10.5 11 Oeste 23 Oeste 0 -- -- 99
2018-11-16 01:00:00 10.9 10 Oeste 17 Noroeste 0 -- -- 99
2018-11-16 00:00:00 11 10 Noroeste 19 Noroeste 0.4 -- -- 99
2018-11-15 23:00:00 11.1 11 Oeste 18 Oeste 0.2 -- -- 99
2018-11-15 22:00:00 11 10 Oeste 20 Noroeste 0 -- -- 98
2018-11-15 21:00:00 10.7 12 Noroeste 22 Oeste 0 -- -- 99
2018-11-15 20:00:00 11.2 15 Oeste 23 Oeste 0 -- -- 99
2018-11-15 19:00:00 11.5 13 Noroeste 29 Noroeste 0.8 -- -- 99
2018-11-15 18:00:00 11.8 16 Oeste 26 Oeste 0.2 -- -- 98
2018-11-15 17:00:00 12.2 18 Oeste 30 Oeste 0 -- -- 94
2018-11-15 16:00:00 12.5 15 Noroeste 32 Oeste 0.2 -- -- 92
2018-11-15 15:00:00 14.2 10 Noroeste 23 Oeste 0 -- -- 89
2018-11-15 14:00:00 13.1 14 Oeste 27 Oeste 0 -- -- 97
2018-11-15 13:00:00 13.2 13 Noroeste 21 Oeste 0.2 -- -- 95
2018-11-15 12:00:00 14.6 9 Noroeste 22 Oeste 0 -- -- 81
2018-11-15 11:00:00 15.9 13 Noroeste 31 Oeste 0 -- -- 71
2018-11-15 10:00:00 16.4 7 Oeste 17 Oeste 0 -- -- 60
2018-11-15 09:00:00 12.6 6 Este 15 Este 0 -- -- 81
2018-11-15 08:00:00 10.4 3 Sur 20 Oeste 0 -- -- 89
2018-11-15 07:00:00 9.9 13 Oeste 25 Oeste 0 -- -- 93
2018-11-15 06:00:00 9.5 13 Oeste 23 Oeste 0 -- -- 88
2018-11-15 05:00:00 9.4 2 Sudoeste 14 Sudeste 0 -- -- 86
2018-11-15 04:00:00 9.1 7 Este 23 Sudoeste 0 -- -- 88
2018-11-15 03:00:00 9.8 12 Oeste 20 Oeste 0 -- -- 88
2018-11-15 02:00:00 9.7 12 Oeste 17 Oeste 0 -- -- 88
2018-11-15 01:00:00 9.6 9 Oeste 13 Oeste 0 -- -- 90
2018-11-15 00:00:00 9.9 7 Oeste 15 Oeste 0 -- -- 93
2018-11-14 23:00:00 10 8 Oeste 13 Oeste 0 -- -- 93
2018-11-14 22:00:00 10.2 6 Oeste 9 Sudoeste 0 -- -- 95
2018-11-14 21:00:00 11.1 5 Oeste 9 Oeste 0 -- -- 97
2018-11-14 20:00:00 11.1 3 Oeste 9 Oeste 0 -- -- 96
2018-11-14 19:00:00 11.3 4 Noroeste 10 Noroeste 0 -- -- 95
2018-11-14 18:00:00 11.6 7 Norte 13 Oeste 0 -- -- 90
2018-11-14 17:00:00 12.6 8 Noroeste 18 Noroeste 0 -- -- 84
2018-11-14 16:00:00 14 8 Noroeste 19 Noroeste 0 -- -- 81
2018-11-14 15:00:00 15.1 9 Noroeste 15 Noroeste 0 -- -- 77
2018-11-14 14:00:00 13.9 8 Norte 14 Noroeste 0 -- -- 85
2018-11-14 13:00:00 13.8 9 Norte 16 Noroeste 0 -- -- 87
2018-11-14 12:00:00 12.8 8 Norte 16 Norte 0 -- -- 90
2018-11-14 11:00:00 12.5 4 Norte 12 Norte 0 -- -- 90
2018-11-14 10:00:00 12.7 3 Norte 10 Norte 0 -- -- 88
2018-11-14 09:00:00 11.9 3 Noroeste 13 Nordeste 0 -- -- 97
2018-11-14 08:00:00 10.9 3 Norte 11 Nordeste 0 -- -- 99
2018-11-14 07:00:00 10.1 4 Sudeste 13 Este 0 -- -- 99
2018-11-14 06:00:00 9.8 4 Nordeste 9 Nordeste 0 -- -- 99
2018-11-14 05:00:00 9.5 4 Nordeste 18 Nordeste 0.2 -- -- 100
2018-11-14 04:00:00 10.5 8 Nordeste 22 Norte 0.2 -- -- 100
2018-11-14 03:00:00 10.6 6 Nordeste 22 Nordeste 0 -- -- 100
2018-11-14 02:00:00 10.5 4 Nordeste 28 Norte 0.4 -- -- 100
2018-11-14 01:00:00 10.9 17 Norte 29 Norte 0.4 -- -- 99
2018-11-14 00:00:00 11 11 Norte 26 Norte 1.4 -- -- 99
2018-11-13 23:00:00 10.7 6 Nordeste 28 Nordeste 0.4 -- -- 98
2018-11-13 22:00:00 10.7 7 Nordeste 23 Norte 0 -- -- 97
2018-11-13 21:00:00 10.8 12 Norte 25 Norte 0 -- -- 97
2018-11-13 20:00:00 10.9 11 Norte 26 Norte 0 -- -- 98
2018-11-13 19:00:00 10.6 8 Norte 21 Norte 0 -- -- 97
2018-11-13 18:00:00 11 8 Norte 31 Noroeste 0.2 -- -- 98
2018-11-13 17:00:00 11.8 9 Norte 29 Nordeste 0.2 -- -- 96
2018-11-13 16:00:00 12.4 12 Norte 26 Norte 0.2 -- -- 93
2018-11-13 15:00:00 14.3 13 Norte 30 Nordeste 0 -- -- 81
2018-11-13 14:00:00 12.6 11 Norte 33 Noroeste 0 -- -- 92
2018-11-13 13:00:00 11.9 10 Norte 33 Norte 0.2 -- -- 94
2018-11-13 12:00:00 13.1 12 Norte 31 Nordeste 0 -- -- 92
2018-11-13 11:00:00 11.7 14 Norte 30 Norte 0 -- -- 95
2018-11-13 10:00:00 11.5 12 Norte 26 Norte 0 -- -- 97
2018-11-13 09:00:00 11 12 Norte 26 Norte 0 -- -- 99
2018-11-13 08:00:00 10.1 10 Norte 24 Norte 0 -- -- 100
2018-11-13 07:00:00 10.1 13 Norte 25 Norte 0.2 -- -- 100
2018-11-13 06:00:00 10.1 11 Norte 22 Norte 0 -- -- 100
2018-11-13 05:00:00 10.4 13 Norte 28 Norte 0 -- -- 100
2018-11-13 04:00:00 10.8 14 Norte 31 Norte 0.6 -- -- 100
2018-11-13 03:00:00 9.9 7 Norte 26 Norte 0 -- -- 100
2018-11-13 02:00:00 10.3 14 Norte 26 Norte 0.4 -- -- 100
2018-11-13 01:00:00 10.5 14 Norte 28 Norte 0.4 -- -- 100
2018-11-13 00:00:00 10.6 12 Norte 30 Norte 0 -- -- 100
2018-11-12 23:00:00 10.7 10 Norte 30 Norte 0 -- -- 100
2018-11-12 22:00:00 10.7 11 Norte 31 Norte 0.2 -- -- 100
2018-11-12 21:00:00 11 13 Norte 30 Noroeste 0 -- -- 100
2018-11-12 20:00:00 11 15 Norte 28 Norte 0 -- -- 100
2018-11-12 19:00:00 10.9 13 Norte 30 Nordeste 0 -- -- 100
2018-11-12 18:00:00 11.6 13 Norte 26 Norte 0.2 -- -- 100
2018-11-12 17:00:00 11.9 16 Norte 33 Noroeste 0.4 -- -- 100
2018-11-12 16:00:00 12.5 14 Norte 32 Norte 1 -- -- 100
2018-11-12 15:00:00 12.5 14 Noroeste 31 Noroeste 0.8 -- -- 100
2018-11-12 14:00:00 12.5 13 Noroeste 37 Norte 3.6 -- -- 99
2018-11-12 13:00:00 13 13 Noroeste 37 Noroeste 5.2 -- -- 99
2018-11-12 12:00:00 13 18 Noroeste 45 Noroeste 4.8 -- -- 99
2018-11-12 11:00:00 13.4 17 Noroeste 32 Oeste 3.4 -- -- 99
2018-11-12 10:00:00 13 11 Noroeste 31 Noroeste 1.8 -- -- 99
2018-11-12 09:00:00 12.8 17 Noroeste 28 Noroeste 2.6 -- -- 99
2018-11-12 08:00:00 12.9 15 Noroeste 31 Oeste 1.8 -- -- 98
2018-11-12 07:00:00 12.6 22 Oeste 35 Oeste 0 -- -- 95
2018-11-12 06:00:00 12.8 19 Oeste 28 Sudoeste 0 -- -- 94
2018-11-12 05:00:00 12.1 13 Noroeste 27 Oeste 0 -- -- 95
2018-11-12 04:00:00 12.3 16 Oeste 29 Oeste 0 -- -- 96
2018-11-12 03:00:00 12 19 Oeste 28 Oeste 0 -- -- 97
2018-11-12 02:00:00 11.9 16 Oeste 23 Oeste 0 -- -- 98
2018-11-12 01:00:00 12.6 12 Noroeste 20 Oeste 0 -- -- 99
2018-11-12 00:00:00 12.4 8 Oeste 18 Noroeste 0 -- -- 99
2018-11-11 23:00:00 12.1 11 Oeste 21 Oeste 0 -- -- 98
2018-11-11 22:00:00 12.9 11 Oeste 18 Noroeste 0 -- -- 98
2018-11-11 21:00:00 12.8 9 Noroeste 18 Oeste 0.2 -- -- 98
2018-11-11 20:00:00 12.7 9 Oeste 18 Oeste 0 -- -- 94
2018-11-11 19:00:00 13 10 Noroeste 22 Noroeste 0 -- -- 93
2018-11-11 18:00:00 13.4 9 Noroeste 15 Noroeste 0 -- -- 89
2018-11-11 17:00:00 14.8 9 Noroeste 21 Noroeste 0 -- -- 82
2018-11-11 16:00:00 16.4 10 Noroeste 16 Norte 0 -- -- 74
2018-11-11 15:00:00 17.9 12 Norte 21 Noroeste 0 -- -- 66
2018-11-11 14:00:00 16.1 10 Norte 22 Noroeste 0 -- -- 71
2018-11-11 13:00:00 16.2 8 Norte 15 Norte 0 -- -- 77
2018-11-11 12:00:00 15.3 4 Norte 14 Norte 0.2 -- -- 73
2018-11-11 11:00:00 13.6 7 Norte 15 Norte 0 -- -- 95
2018-11-11 10:00:00 13.2 3 Sudoeste 10 Nordeste 0 -- -- 90
2018-11-11 09:00:00 12.6 4 Sur 10 Norte 0 -- -- 89
2018-11-11 08:00:00 11.6 5 Norte 12 Sudoeste 0 -- -- 93
2018-11-11 07:00:00 10.9 4 Oeste 8 Oeste 0 -- -- 96
2018-11-11 06:00:00 11.1 4 Noroeste 9 Norte 0 -- -- 97
2018-11-11 05:00:00 11.4 4 Norte 6 Norte 0 -- -- 95
2018-11-11 04:00:00 11.1 2 Oeste 9 Norte 0 -- -- 96
2018-11-11 03:00:00 11.5 2 Norte 12 Noroeste 0 -- -- 95
2018-11-11 02:00:00 11.5 4 Oeste 10 Sur 0 -- -- 94
2018-11-11 01:00:00 11 4 Norte 12 Nordeste 0 -- -- 96
2018-11-11 00:00:00 11.5 4 Nordeste 8 Norte 0 -- -- 96
2018-11-10 23:00:00 11.2 2 Nordeste 11 Norte 0 -- -- 94
2018-11-10 22:00:00 11.7 0 Calma 7 Nordeste 0 -- -- 95
2018-11-10 21:00:00 11.7 5 Norte 10 Norte 0 -- -- 93
2018-11-10 20:00:00 11.1 6 Nordeste 13 Nordeste 0 -- -- 95
2018-11-10 19:00:00 12.1 3 Nordeste 9 Oeste 0 -- -- 94
2018-11-10 18:00:00 12.3 3 Norte 14 Noroeste 0 -- -- 92
2018-11-10 17:00:00 13.6 2 Nordeste 12 Norte 0 -- -- 82
2018-11-10 16:00:00 14.8 7 Norte 15 Norte 0 -- -- 78
2018-11-10 15:00:00 14.6 6 Norte 19 Norte 0 -- -- 82
2018-11-10 14:00:00 15 8 Norte 18 Norte 0 -- -- 81
2018-11-10 13:00:00 14.2 8 Norte 17 Norte 0 -- -- 82
2018-11-10 12:00:00 14.6 4 Norte 18 Norte 0 -- -- 82
2018-11-10 11:00:00 13.9 4 Norte 14 Norte 0 -- -- 86
2018-11-10 10:00:00 12.3 5 Norte 15 Norte 0 -- -- 95
2018-11-10 09:00:00 11.8 6 Norte 14 Norte 0 -- -- 98
2018-11-10 08:00:00 11.2 5 Nordeste 16 Norte 0 -- -- 99
2018-11-10 07:00:00 11 5 Nordeste 15 Norte 0 -- -- 99
2018-11-10 06:00:00 11 2 Noroeste 12 Nordeste 0 -- -- 99
2018-11-10 05:00:00 11.3 4 Norte 14 Nordeste 0 -- -- 99
2018-11-10 04:00:00 11.6 9 Norte 22 Nordeste 0.2 -- -- 99
2018-11-10 03:00:00 11.6 6 Norte 14 Norte 0.2 -- -- 98
2018-11-10 02:00:00 11.2 3 Este 11 Sudoeste 0 -- -- 97
2018-11-10 01:00:00 10.7 3 Sudeste 17 Nordeste 0 -- -- 98
2018-11-10 00:00:00 11.2 5 Sudeste 17 Este 0 -- -- 99